createdAt,value
2023-12-30T00:02:11.079Z,2.63
2023-12-30T00:04:39.630Z,2.70
2023-12-30T00:07:08.059Z,1.93
2023-12-30T00:09:38.784Z,2.70
2023-12-30T00:12:08.055Z,2.97
2023-12-30T00:14:36.738Z,2.67
2023-12-30T00:17:06.704Z,2.90
2023-12-30T00:19:36.395Z,2.80
2023-12-30T00:22:05.215Z,2.37
2023-12-30T00:24:36.026Z,2.33
2023-12-30T00:27:04.528Z,2.87
2023-12-30T00:29:33.064Z,3.27
2023-12-30T00:32:03.853Z,2.77
2023-12-30T00:34:36.530Z,2.73
2023-12-30T00:37:05.355Z,2.30
2023-12-30T00:39:33.709Z,2.93
2023-12-30T00:42:02.182Z,2.70
2023-12-30T00:44:30.562Z,2.93
2023-12-30T00:46:59.054Z,2.00
2023-12-30T00:49:27.588Z,2.10
2023-12-30T00:51:57.426Z,3.20
2023-12-30T00:54:29.994Z,2.40
2023-12-30T00:57:03.602Z,2.50
2023-12-30T00:59:32.020Z,2.50
2023-12-30T01:02:00.965Z,2.60
2023-12-30T01:04:29.385Z,2.20
2023-12-30T01:06:59.459Z,2.27
2023-12-30T01:09:27.817Z,2.40
2023-12-30T01:11:56.310Z,2.17
2023-12-30T01:14:24.774Z,2.87
2023-12-30T01:16:53.350Z,2.70
2023-12-30T01:19:23.129Z,3.50
2023-12-30T01:21:51.551Z,1.80
2023-12-30T01:24:21.321Z,2.90
2023-12-30T01:26:49.782Z,2.50
2023-12-30T01:29:18.152Z,2.30
2023-12-30T01:31:46.651Z,2.37
2023-12-30T01:34:15.845Z,2.30
2023-12-30T01:36:44.253Z,2.27
2023-12-30T01:39:13.222Z,2.10
2023-12-30T01:41:44.168Z,2.70
2023-12-30T01:44:12.838Z,2.70
2023-12-30T01:46:41.319Z,3.27
2023-12-30T01:49:09.817Z,2.47
2023-12-30T01:51:42.244Z,2.50
2023-12-30T01:54:11.954Z,3.33
2023-12-30T01:56:41.905Z,2.20
2023-12-30T01:59:11.666Z,2.10
2023-12-30T02:01:40.414Z,2.30
2023-12-30T02:04:09.064Z,2.20
2023-12-30T02:06:37.726Z,1.77
2023-12-30T02:09:06.121Z,2.00
2023-12-30T02:11:35.445Z,2.17
2023-12-30T02:14:05.499Z,2.30
2023-12-30T02:16:37.242Z,2.30
2023-12-30T02:19:05.747Z,3.57
2023-12-30T02:21:34.720Z,2.40
2023-12-30T02:24:04.718Z,2.23
2023-12-30T02:26:33.354Z,2.90
2023-12-30T02:29:01.730Z,3.10
2023-12-30T02:31:30.166Z,2.90
2023-12-30T02:33:58.620Z,3.10
2023-12-30T02:36:27.131Z,3.40
2023-12-30T02:38:55.464Z,4.07
2023-12-30T02:41:25.355Z,3.53
2023-12-30T02:44:01.732Z,3.50
2023-12-30T02:46:30.416Z,3.10
2023-12-30T02:49:04.011Z,2.60
2023-12-30T02:51:32.725Z,3.20
2023-12-30T02:54:01.696Z,3.20
2023-12-30T02:56:31.431Z,3.80
2023-12-30T02:59:01.888Z,3.60
2023-12-30T03:01:32.279Z,3.90
2023-12-30T03:04:02.986Z,3.20
2023-12-30T03:06:32.110Z,3.80
2023-12-30T03:09:00.567Z,3.50
2023-12-30T03:11:30.544Z,2.53
2023-12-30T03:13:58.992Z,3.20
2023-12-30T03:16:27.499Z,3.47
2023-12-30T03:18:56.634Z,3.47
2023-12-30T03:21:26.246Z,3.13
2023-12-30T03:23:54.720Z,2.83
2023-12-30T03:26:24.009Z,2.50
2023-12-30T03:28:53.984Z,2.60
2023-12-30T03:31:24.642Z,2.70
2023-12-30T03:33:53.735Z,3.73
2023-12-30T03:36:22.808Z,4.20
2023-12-30T03:38:51.938Z,3.47
2023-12-30T03:41:20.652Z,3.27
2023-12-30T03:43:49.653Z,3.00
2023-12-30T03:46:19.762Z,3.20
2023-12-30T03:48:48.461Z,3.53
2023-12-30T03:51:17.022Z,2.93
2023-12-30T03:53:45.564Z,4.13
2023-12-30T03:56:14.642Z,3.90
2023-12-30T03:58:43.172Z,3.70
2023-12-30T04:01:11.616Z,3.70
2023-12-30T04:03:41.785Z,3.90
2023-12-30T04:06:18.663Z,3.07
2023-12-30T04:08:47.128Z,3.60
2023-12-30T04:11:15.557Z,3.77
2023-12-30T04:13:44.179Z,3.07
2023-12-30T04:16:12.824Z,3.70
2023-12-30T04:18:42.868Z,2.93
2023-12-30T04:21:11.704Z,3.17
2023-12-30T04:23:40.225Z,2.97
2023-12-30T04:26:08.764Z,2.87
2023-12-30T04:28:37.251Z,2.80
2023-12-30T04:31:06.331Z,2.83
2023-12-30T04:33:35.024Z,3.07
2023-12-30T04:36:05.409Z,3.17
2023-12-30T04:38:33.779Z,2.93
2023-12-30T04:41:02.306Z,3.20
2023-12-30T04:43:32.882Z,2.80
2023-12-30T04:46:01.377Z,3.50
2023-12-30T04:48:29.959Z,3.03
2023-12-30T04:50:58.652Z,3.40
2023-12-30T04:53:28.852Z,3.37
2023-12-30T04:55:57.359Z,3.27
2023-12-30T04:58:25.939Z,3.10
2023-12-30T05:00:54.541Z,3.53
2023-12-30T05:03:23.361Z,4.07
2023-12-30T05:05:52.854Z,3.73
2023-12-30T05:08:21.559Z,3.57
2023-12-30T05:10:51.483Z,2.97
2023-12-30T05:13:20.096Z,3.23
2023-12-30T05:15:49.743Z,4.00
2023-12-30T05:18:18.518Z,4.10
2023-12-30T05:20:46.923Z,3.87
2023-12-30T05:23:15.947Z,3.40
2023-12-30T05:25:44.488Z,4.13
2023-12-30T05:28:14.407Z,4.83
2023-12-30T05:30:43.116Z,4.63
2023-12-30T05:33:11.599Z,3.57
2023-12-30T05:35:42.141Z,3.90
2023-12-30T05:38:13.501Z,3.27
2023-12-30T05:40:42.034Z,4.00
2023-12-30T05:43:10.469Z,3.70
2023-12-30T05:45:40.300Z,4.30
2023-12-30T05:48:09.180Z,4.33
2023-12-30T05:50:37.776Z,3.30
2023-12-30T05:53:06.150Z,4.00
2023-12-30T05:55:34.605Z,3.27
2023-12-30T05:58:03.002Z,3.77
2023-12-30T06:00:31.538Z,4.33
2023-12-30T06:03:01.578Z,6.00
2023-12-30T06:05:30.412Z,3.03
2023-12-30T06:07:58.953Z,4.50
2023-12-30T06:10:27.330Z,3.50
2023-12-30T06:12:55.729Z,3.93
2023-12-30T06:15:24.496Z,3.87
2023-12-30T06:17:53.101Z,3.53
2023-12-30T06:20:24.379Z,4.43
2023-12-30T06:22:52.863Z,3.37
2023-12-30T06:25:21.347Z,3.73
2023-12-30T06:27:49.743Z,3.03
2023-12-30T06:30:18.485Z,4.10
2023-12-30T06:32:46.989Z,3.47
2023-12-30T06:35:15.684Z,3.63
2023-12-30T06:37:45.382Z,2.80
2023-12-30T06:40:14.038Z,3.50
2023-12-30T06:42:46.146Z,3.20
2023-12-30T06:45:14.633Z,2.90
2023-12-30T06:47:44.750Z,3.37
2023-12-30T06:50:14.443Z,4.10
2023-12-30T06:52:44.224Z,3.60
2023-12-30T06:55:20.786Z,3.87
2023-12-30T06:57:55.952Z,3.47
2023-12-30T07:00:24.380Z,4.00
2023-12-30T07:02:52.871Z,5.03
2023-12-30T07:05:21.321Z,3.27
2023-12-30T07:07:51.354Z,3.10
2023-12-30T07:10:20.252Z,3.80
2023-12-30T07:12:48.718Z,3.97
2023-12-30T07:15:17.449Z,4.27
2023-12-30T07:17:47.071Z,4.30
2023-12-30T07:20:15.988Z,4.67
2023-12-30T07:22:45.098Z,4.90
2023-12-30T07:25:15.564Z,4.33
2023-12-30T07:27:43.968Z,4.20
2023-12-30T07:30:13.355Z,4.03
2023-12-30T07:32:42.205Z,5.60
2023-12-30T07:35:10.997Z,6.20
2023-12-30T07:37:39.687Z,5.33
2023-12-30T07:40:10.167Z,6.10
2023-12-30T07:42:40.108Z,6.30
2023-12-30T07:45:09.739Z,6.50
2023-12-30T07:47:38.693Z,6.00
2023-12-30T07:50:09.226Z,5.30
2023-12-30T07:52:37.788Z,5.60
2023-12-30T07:55:07.239Z,6.00
2023-12-30T07:57:35.713Z,5.73
2023-12-30T08:00:07.559Z,5.90
2023-12-30T08:02:42.229Z,5.43
2023-12-30T08:05:10.817Z,5.30
2023-12-30T08:07:39.369Z,6.53
2023-12-30T08:10:09.300Z,4.83
2023-12-30T08:12:37.889Z,5.43
2023-12-30T08:15:12.041Z,6.50
2023-12-30T08:17:40.736Z,5.30
2023-12-30T08:20:11.298Z,5.90
2023-12-30T08:22:40.470Z,5.70
2023-12-30T08:25:10.138Z,6.30
2023-12-30T08:27:38.592Z,5.90
2023-12-30T08:30:10.489Z,5.90
2023-12-30T08:32:38.959Z,5.83
2023-12-30T08:35:09.184Z,4.80
2023-12-30T08:37:38.261Z,5.83
2023-12-30T08:40:12.636Z,4.40
2023-12-30T08:42:45.359Z,5.17
2023-12-30T08:45:19.656Z,5.10
2023-12-30T08:47:48.566Z,4.90
2023-12-30T08:50:17.262Z,5.40
2023-12-30T08:52:46.053Z,5.37
2023-12-30T08:55:14.491Z,4.40
2023-12-30T08:57:44.206Z,4.50
2023-12-30T09:00:17.715Z,4.20
2023-12-30T09:02:48.982Z,4.63
2023-12-30T09:05:20.095Z,4.70
2023-12-30T09:07:49.532Z,4.23
2023-12-30T09:10:21.728Z,4.90
2023-12-30T09:12:50.306Z,5.57
2023-12-30T09:15:20.452Z,5.00
2023-12-30T09:17:49.005Z,4.23
2023-12-30T09:20:17.830Z,3.67
2023-12-30T09:22:46.541Z,4.10
2023-12-30T09:25:15.246Z,4.00
2023-12-30T09:27:43.962Z,4.37
2023-12-30T09:30:13.161Z,4.13
2023-12-30T09:32:42.952Z,4.40
2023-12-30T09:35:11.866Z,3.60
2023-12-30T09:37:40.455Z,3.83
2023-12-30T09:40:11.332Z,4.80
2023-12-30T09:42:40.865Z,3.80
2023-12-30T09:45:11.700Z,6.47
2023-12-30T09:47:41.069Z,3.53
2023-12-30T09:50:11.695Z,4.20
2023-12-30T09:52:40.226Z,4.50
2023-12-30T09:55:09.669Z,3.77
2023-12-30T09:57:38.593Z,4.60
2023-12-30T10:00:09.880Z,4.30
2023-12-30T10:02:39.498Z,4.30
2023-12-30T10:05:10.922Z,4.70
2023-12-30T10:07:39.539Z,5.27
2023-12-30T10:10:10.132Z,4.80
2023-12-30T10:12:39.245Z,4.30
2023-12-30T10:15:08.645Z,4.80
2023-12-30T10:17:38.732Z,4.33
2023-12-30T10:20:11.836Z,4.90
2023-12-30T10:22:41.037Z,5.17
2023-12-30T10:25:10.321Z,5.30
2023-12-30T10:27:40.341Z,5.70
2023-12-30T10:30:10.651Z,5.97
2023-12-30T10:32:39.275Z,4.97
2023-12-30T10:35:10.159Z,5.93
2023-12-30T10:37:38.708Z,7.30
2023-12-30T10:40:10.651Z,7.20
2023-12-30T10:42:39.622Z,7.03
2023-12-30T10:45:09.112Z,5.47
2023-12-30T10:47:42.779Z,5.30
2023-12-30T10:50:14.806Z,6.03
2023-12-30T10:52:52.924Z,8.60
2023-12-30T10:55:27.579Z,7.27
2023-12-30T10:58:05.965Z,8.80
2023-12-30T11:00:37.928Z,8.90
2023-12-30T11:03:07.026Z,8.53
2023-12-30T11:05:41.041Z,9.70
2023-12-30T11:08:10.509Z,9.97
2023-12-30T11:10:42.611Z,10.30
2023-12-30T11:13:11.837Z,10.50
2023-12-30T11:15:42.692Z,9.73
2023-12-30T11:18:15.164Z,10.27
2023-12-30T11:20:47.936Z,10.67
2023-12-30T11:23:17.411Z,11.53
2023-12-30T11:25:48.917Z,9.97
2023-12-30T11:28:20.271Z,9.60
2023-12-30T11:31:01.340Z,10.30
2023-12-30T11:33:30.270Z,10.40
2023-12-30T11:36:02.282Z,10.73
2023-12-30T11:38:32.980Z,12.57
2023-12-30T11:41:03.958Z,12.20
2023-12-30T11:43:32.862Z,11.73
2023-12-30T11:46:04.498Z,12.00
2023-12-30T11:48:33.040Z,11.87
2023-12-30T11:51:03.052Z,12.90
2023-12-30T11:53:36.248Z,11.63
2023-12-30T11:56:04.956Z,12.10
2023-12-30T11:58:33.727Z,11.60
2023-12-30T12:01:02.683Z,10.83
2023-12-30T12:03:31.223Z,10.80
2023-12-30T12:06:00.258Z,10.70
2023-12-30T12:08:31.196Z,9.23
2023-12-30T12:10:59.782Z,9.07
2023-12-30T12:13:31.349Z,9.00
2023-12-30T12:15:59.833Z,7.40
2023-12-30T12:18:28.635Z,8.20
2023-12-30T12:20:57.498Z,6.30
2023-12-30T12:23:27.058Z,7.50
2023-12-30T12:25:56.820Z,5.57
2023-12-30T12:28:25.366Z,6.67
2023-12-30T12:30:55.182Z,4.50
2023-12-30T12:33:23.614Z,5.87
2023-12-30T12:35:52.278Z,5.03
2023-12-30T12:38:20.828Z,5.37
2023-12-30T12:40:49.466Z,5.17
2023-12-30T12:43:19.763Z,4.67
2023-12-30T12:45:49.144Z,4.53
2023-12-30T12:48:17.700Z,4.80
2023-12-30T12:50:46.264Z,5.10
2023-12-30T12:53:14.789Z,4.67
2023-12-30T12:55:43.336Z,4.90
2023-12-30T12:58:11.856Z,5.60
2023-12-30T13:00:41.608Z,4.27
2023-12-30T13:03:10.508Z,5.33
2023-12-30T13:05:39.360Z,5.43
2023-12-30T13:08:09.864Z,4.80
2023-12-30T13:10:41.360Z,5.13
2023-12-30T13:13:10.115Z,5.43
2023-12-30T13:15:39.807Z,4.93
2023-12-30T13:18:14.372Z,4.37
2023-12-30T13:20:46.373Z,4.43
2023-12-30T13:23:16.021Z,4.20
2023-12-30T13:25:45.282Z,4.67
2023-12-30T13:28:15.252Z,4.13
2023-12-30T13:30:44.737Z,3.43
2023-12-30T13:33:17.923Z,4.33
2023-12-30T13:35:46.679Z,3.90
2023-12-30T13:38:15.903Z,3.73
2023-12-30T13:40:45.607Z,3.53
2023-12-30T13:43:14.846Z,3.40
2023-12-30T13:45:46.633Z,3.10
2023-12-30T13:48:42.389Z,3.43
2023-12-30T13:51:13.013Z,3.53
2023-12-30T13:53:41.716Z,3.77
2023-12-30T13:56:18.447Z,4.07
2023-12-30T13:58:48.761Z,3.63
2023-12-30T14:01:18.897Z,3.93
2023-12-30T14:03:49.252Z,3.63
2023-12-30T14:06:22.545Z,4.07
2023-12-30T14:08:50.926Z,3.10
2023-12-30T14:11:35.550Z,3.70
2023-12-30T14:14:10.320Z,3.37
2023-12-30T14:16:40.077Z,3.30
2023-12-30T14:19:10.479Z,2.50
2023-12-30T14:21:40.256Z,3.70
2023-12-30T14:24:12.739Z,3.13
2023-12-30T14:26:41.208Z,2.50
2023-12-30T14:29:10.147Z,3.83
2023-12-30T14:31:38.971Z,2.43
2023-12-30T14:34:07.468Z,3.53
2023-12-30T14:36:37.281Z,2.73
2023-12-30T14:39:09.527Z,3.87
2023-12-30T14:41:39.477Z,2.77
2023-12-30T14:44:07.810Z,2.40
2023-12-30T14:46:36.369Z,2.60
2023-12-30T14:49:04.963Z,3.07
2023-12-30T14:51:33.967Z,2.70
2023-12-30T14:54:05.021Z,3.20
2023-12-30T14:56:37.506Z,3.23
2023-12-30T14:59:06.046Z,3.03
2023-12-30T15:01:34.667Z,2.40
2023-12-30T15:04:04.693Z,2.50
2023-12-30T15:06:35.771Z,3.40
2023-12-30T15:09:10.086Z,3.40
2023-12-30T15:11:38.866Z,3.83
2023-12-30T15:14:07.618Z,4.10
2023-12-30T15:16:36.128Z,3.70
2023-12-30T15:19:04.615Z,3.70
2023-12-30T15:21:35.401Z,3.30
2023-12-30T15:24:06.003Z,3.40
2023-12-30T15:26:34.486Z,3.20
2023-12-30T15:29:03.071Z,3.23
2023-12-30T15:31:32.546Z,7.23
2023-12-30T15:34:01.342Z,2.90
2023-12-30T15:36:30.494Z,3.00
2023-12-30T15:38:59.718Z,2.70
2023-12-30T15:41:29.978Z,3.30
2023-12-30T15:43:58.539Z,3.00
2023-12-30T15:46:29.177Z,2.90
2023-12-30T15:48:57.715Z,3.00
2023-12-30T15:51:26.228Z,3.20
2023-12-30T15:53:54.692Z,2.80
2023-12-30T15:56:23.029Z,2.97
2023-12-30T15:58:53.392Z,2.90
2023-12-30T16:01:21.864Z,2.50
2023-12-30T16:03:50.315Z,3.07
2023-12-30T16:06:18.681Z,2.43
2023-12-30T16:08:47.359Z,2.80
2023-12-30T16:11:16.334Z,3.20
2023-12-30T16:13:44.731Z,3.00
2023-12-30T16:16:14.617Z,2.57
2023-12-30T16:18:43.178Z,3.20
2023-12-30T16:21:13.510Z,3.17
2023-12-30T16:23:41.979Z,3.30
2023-12-30T16:26:11.147Z,3.07
2023-12-30T16:28:40.551Z,3.73
2023-12-30T16:31:09.035Z,3.97
2023-12-30T16:33:42.228Z,3.70
2023-12-30T16:36:12.126Z,3.20
2023-12-30T16:38:40.805Z,3.50
2023-12-30T16:41:09.174Z,2.63
2023-12-30T16:43:38.485Z,3.00
2023-12-30T16:46:07.726Z,2.83
2023-12-30T16:48:36.145Z,2.57
2023-12-30T16:51:06.451Z,2.80
2023-12-30T16:53:34.845Z,3.90
2023-12-30T16:56:03.536Z,3.10
2023-12-30T16:58:32.426Z,3.80
2023-12-30T17:01:01.554Z,3.27
2023-12-30T17:03:30.197Z,3.03
2023-12-30T17:05:58.669Z,3.37
2023-12-30T17:08:29.768Z,2.70
2023-12-30T17:10:58.155Z,2.63
2023-12-30T17:13:34.914Z,2.77
2023-12-30T17:16:09.340Z,2.80
2023-12-30T17:18:38.468Z,2.50
2023-12-30T17:21:07.004Z,2.77
2023-12-30T17:23:36.837Z,2.53
2023-12-30T17:26:05.686Z,2.47
2023-12-30T17:28:34.977Z,2.60
2023-12-30T17:31:06.822Z,2.93
2023-12-30T17:33:35.358Z,2.97
2023-12-30T17:36:03.981Z,2.57
2023-12-30T17:38:32.429Z,3.67
2023-12-30T17:41:02.226Z,2.80
2023-12-30T17:43:30.827Z,2.80
2023-12-30T17:45:59.191Z,2.70
2023-12-30T17:48:28.228Z,2.40
2023-12-30T17:50:56.846Z,2.90
2023-12-30T17:53:25.272Z,2.00
2023-12-30T17:55:56.641Z,3.03
2023-12-30T17:58:26.467Z,3.50
2023-12-30T18:00:54.914Z,2.73
2023-12-30T18:03:23.424Z,2.97
2023-12-30T18:05:50.866Z,3.40
2023-12-30T18:08:19.596Z,2.33
2023-12-30T18:10:48.164Z,2.30
2023-12-30T18:13:16.863Z,2.67
2023-12-30T18:15:47.073Z,2.37
2023-12-30T18:18:15.518Z,3.07
2023-12-30T18:20:44.144Z,2.63
2023-12-30T18:23:12.532Z,3.40
2023-12-30T18:25:40.864Z,2.97
2023-12-30T18:28:09.319Z,2.27
2023-12-30T18:30:38.269Z,2.20
2023-12-30T18:33:10.052Z,2.20
2023-12-30T18:35:39.803Z,2.57
2023-12-30T18:38:08.199Z,2.73
2023-12-30T18:40:38.015Z,3.23
2023-12-30T18:43:06.764Z,2.40
2023-12-30T18:45:35.207Z,3.00
2023-12-30T18:48:04.266Z,3.03
2023-12-30T18:50:34.661Z,2.87
2023-12-30T18:53:03.715Z,2.90
2023-12-30T18:55:33.929Z,3.37
2023-12-30T18:58:02.510Z,2.93
2023-12-30T19:00:31.076Z,2.50
2023-12-30T19:02:59.637Z,2.80
2023-12-30T19:05:28.128Z,2.10
2023-12-30T19:07:58.095Z,3.10
2023-12-30T19:10:29.904Z,2.57
2023-12-30T19:12:58.490Z,2.73
2023-12-30T19:15:27.204Z,3.37
2023-12-30T19:17:55.802Z,2.90
2023-12-30T19:20:24.294Z,2.77
2023-12-30T19:22:53.075Z,2.73
2023-12-30T19:25:22.939Z,2.87
2023-12-30T19:27:52.739Z,2.87
2023-12-30T19:30:21.193Z,3.00
2023-12-30T19:32:49.692Z,2.77
2023-12-30T19:35:20.426Z,3.00
2023-12-30T19:37:49.262Z,2.80
2023-12-30T19:40:18.062Z,3.20
2023-12-30T19:42:48.126Z,3.27
2023-12-30T19:45:17.044Z,3.40
2023-12-30T19:47:45.822Z,3.37
2023-12-30T19:50:14.430Z,2.53
2023-12-30T19:52:42.993Z,2.70
2023-12-30T19:55:11.709Z,3.30
2023-12-30T19:57:40.169Z,2.80
2023-12-30T20:00:14.452Z,3.37
2023-12-30T20:02:43.550Z,3.10
2023-12-30T20:05:14.311Z,3.47
2023-12-30T20:07:43.074Z,2.97
2023-12-30T20:10:12.631Z,3.60
2023-12-30T20:12:41.350Z,3.10
2023-12-30T20:15:11.319Z,3.93
2023-12-30T20:17:39.947Z,3.70
2023-12-30T20:20:11.688Z,3.27
2023-12-30T20:22:40.199Z,3.50
2023-12-30T20:25:09.589Z,3.60
2023-12-30T20:27:38.385Z,3.40
2023-12-30T20:30:08.631Z,3.73
2023-12-30T20:32:38.765Z,3.43
2023-12-30T20:35:08.130Z,3.30
2023-12-30T20:37:36.525Z,3.87
2023-12-30T20:40:07.182Z,3.30
2023-12-30T20:42:36.326Z,3.40
2023-12-30T20:45:06.382Z,3.17
2023-12-30T20:47:34.949Z,3.23
2023-12-30T20:50:05.815Z,3.33
2023-12-30T20:52:35.477Z,3.37
2023-12-30T20:55:05.025Z,3.57
2023-12-30T20:57:33.968Z,4.03
2023-12-30T21:00:02.437Z,3.73
2023-12-30T21:02:31.111Z,3.00
2023-12-30T21:04:59.471Z,3.60
2023-12-30T21:07:29.416Z,3.87
2023-12-30T21:09:57.884Z,3.53
2023-12-30T21:12:26.366Z,3.60
2023-12-30T21:14:54.776Z,4.17
2023-12-30T21:17:23.128Z,3.20
2023-12-30T21:19:51.865Z,3.47
2023-12-30T21:22:20.482Z,3.20
2023-12-30T21:24:50.256Z,3.43
2023-12-30T21:27:18.814Z,4.43
2023-12-30T21:29:47.167Z,3.73
2023-12-30T21:32:15.634Z,3.50
2023-12-30T21:34:44.394Z,4.40
2023-12-30T21:37:13.751Z,4.10
2023-12-30T21:39:42.456Z,3.87
2023-12-30T21:42:12.199Z,5.07
2023-12-30T21:44:42.920Z,4.23
2023-12-30T21:47:11.311Z,4.30
2023-12-30T21:49:40.534Z,3.87
2023-12-30T21:52:09.996Z,4.00
2023-12-30T21:54:38.387Z,4.20
2023-12-30T21:57:06.984Z,3.40
2023-12-30T21:59:36.728Z,4.00
2023-12-30T22:02:05.405Z,3.70
2023-12-30T22:04:33.986Z,3.10
2023-12-30T22:07:02.294Z,4.00
2023-12-30T22:09:33.221Z,3.60
2023-12-30T22:12:01.661Z,3.93
2023-12-30T22:14:30.151Z,3.80
2023-12-30T22:17:00.083Z,3.17
2023-12-30T22:19:28.687Z,3.60
2023-12-30T22:21:57.066Z,3.33
2023-12-30T22:24:25.418Z,3.00
2023-12-30T22:26:56.558Z,3.03
2023-12-30T22:29:25.279Z,2.90
2023-12-30T22:31:54.027Z,3.17
2023-12-30T22:34:23.801Z,2.93
2023-12-30T22:36:53.056Z,3.17
2023-12-30T22:39:21.462Z,3.10
2023-12-30T22:41:49.835Z,3.00
2023-12-30T22:44:18.532Z,2.83
2023-12-30T22:46:47.437Z,2.67
2023-12-30T22:49:16.207Z,2.53
2023-12-30T22:51:49.588Z,2.73
2023-12-30T22:54:19.804Z,2.70
2023-12-30T22:56:48.191Z,3.37
2023-12-30T22:59:17.710Z,2.87
2023-12-30T23:01:46.330Z,2.60
2023-12-30T23:04:14.813Z,2.70
2023-12-30T23:06:44.268Z,2.10
2023-12-30T23:09:14.775Z,2.83
2023-12-30T23:11:43.386Z,2.20
2023-12-30T23:14:11.719Z,2.77
2023-12-30T23:16:41.294Z,2.50
2023-12-30T23:19:09.815Z,2.53
2023-12-30T23:21:38.452Z,2.83
2023-12-30T23:24:08.369Z,2.60
2023-12-30T23:26:38.381Z,2.33
2023-12-30T23:29:06.945Z,2.67
2023-12-30T23:31:38.811Z,2.20
2023-12-30T23:34:09.066Z,1.90
2023-12-30T23:36:37.819Z,2.20
2023-12-30T23:39:06.614Z,1.90
2023-12-30T23:41:35.308Z,2.23
2023-12-30T23:44:06.462Z,2.10
2023-12-30T23:46:35.161Z,1.93
2023-12-30T23:49:03.603Z,1.93
2023-12-30T23:51:31.931Z,2.00
2023-12-30T23:54:00.255Z,2.20
2023-12-30T23:56:29.326Z,1.90
2023-12-30T23:58:57.688Z,1.57
